sensor_id;sensor_type;location;lat;lon;timestamp;temperature;humidity
11256;HTU21D;5685;52.384;13.420;2022-11-03T00:01:12;21.00;99.20
11256;HTU21D;5685;52.384;13.420;2022-11-03T00:04:17;21.00;99.20
11256;HTU21D;5685;52.384;13.420;2022-11-03T00:07:22;21.00;99.40
11256;HTU21D;5685;52.384;13.420;2022-11-03T00:10:24;21.00;99.20
11256;HTU21D;5685;52.384;13.420;2022-11-03T00:13:26;21.00;99.30
11256;HTU21D;5685;52.384;13.420;2022-11-03T00:16:28;21.00;99.10
11256;HTU21D;5685;52.384;13.420;2022-11-03T00:19:31;21.00;99.00
11256;HTU21D;5685;52.384;13.420;2022-11-03T00:22:34;20.90;99.00
11256;HTU21D;5685;52.384;13.420;2022-11-03T00:25:36;20.90;99.00
11256;HTU21D;5685;52.384;13.420;2022-11-03T00:28:39;20.90;99.00
11256;HTU21D;5685;52.384;13.420;2022-11-03T00:31:43;20.90;99.00
11256;HTU21D;5685;52.384;13.420;2022-11-03T00:34:46;20.90;99.00
11256;HTU21D;5685;52.384;13.420;2022-11-03T00:37:49;20.90;98.90
11256;HTU21D;5685;52.384;13.420;2022-11-03T00:40:52;20.80;98.80
11256;HTU21D;5685;52.384;13.420;2022-11-03T00:43:55;20.80;98.90
11256;HTU21D;5685;52.384;13.420;2022-11-03T00:46:57;20.80;98.90
11256;HTU21D;5685;52.384;13.420;2022-11-03T00:49:59;20.80;98.80
11256;HTU21D;5685;52.384;13.420;2022-11-03T00:53:03;20.80;98.80
11256;HTU21D;5685;52.384;13.420;2022-11-03T00:56:07;20.80;98.90
11256;HTU21D;5685;52.384;13.420;2022-11-03T00:59:11;20.80;98.90
11256;HTU21D;5685;52.384;13.420;2022-11-03T01:02:14;20.70;98.80
11256;HTU21D;5685;52.384;13.420;2022-11-03T01:05:16;20.80;98.90
11256;HTU21D;5685;52.384;13.420;2022-11-03T01:08:37;20.70;98.80
11256;HTU21D;5685;52.384;13.420;2022-11-03T01:11:39;20.70;98.80
11256;HTU21D;5685;52.384;13.420;2022-11-03T01:14:49;20.70;99.10
11256;HTU21D;5685;52.384;13.420;2022-11-03T01:17:52;20.70;99.00
11256;HTU21D;5685;52.384;13.420;2022-11-03T01:20:54;20.70;98.90
11256;HTU21D;5685;52.384;13.420;2022-11-03T01:24:00;20.70;98.90
11256;HTU21D;5685;52.384;13.420;2022-11-03T01:27:03;20.60;98.90
11256;HTU21D;5685;52.384;13.420;2022-11-03T01:30:06;20.60;98.80
11256;HTU21D;5685;52.384;13.420;2022-11-03T01:33:09;20.60;98.70
11256;HTU21D;5685;52.384;13.420;2022-11-03T01:36:12;20.60;98.60
11256;HTU21D;5685;52.384;13.420;2022-11-03T01:39:17;20.60;98.70
11256;HTU21D;5685;52.384;13.420;2022-11-03T01:42:20;20.60;98.80
11256;HTU21D;5685;52.384;13.420;2022-11-03T01:45:22;20.60;98.70
11256;HTU21D;5685;52.384;13.420;2022-11-03T01:48:24;20.50;98.80
11256;HTU21D;5685;52.384;13.420;2022-11-03T01:51:28;20.50;98.70
11256;HTU21D;5685;52.384;13.420;2022-11-03T01:54:33;20.50;98.70
11256;HTU21D;5685;52.384;13.420;2022-11-03T01:57:40;20.50;98.70
11256;HTU21D;5685;52.384;13.420;2022-11-03T02:00:47;20.50;98.60
11256;HTU21D;5685;52.384;13.420;2022-11-03T02:03:54;20.50;98.90
11256;HTU21D;5685;52.384;13.420;2022-11-03T02:07:10;20.50;98.70
11256;HTU21D;5685;52.384;13.420;2022-11-03T02:10:17;20.40;98.60
11256;HTU21D;5685;52.384;13.420;2022-11-03T02:13:22;20.40;98.80
11256;HTU21D;5685;52.384;13.420;2022-11-03T02:16:26;20.40;98.90
11256;HTU21D;5685;52.384;13.420;2022-11-03T02:19:33;20.40;99.10
11256;HTU21D;5685;52.384;13.420;2022-11-03T02:26:17;20.40;99.20
11256;HTU21D;5685;52.384;13.420;2022-11-03T02:29:19;20.40;98.90
11256;HTU21D;5685;52.384;13.420;2022-11-03T02:32:23;20.30;98.90
11256;HTU21D;5685;52.384;13.420;2022-11-03T02:35:32;20.30;98.80
11256;HTU21D;5685;52.384;13.420;2022-11-03T02:38:43;20.30;98.90
11256;HTU21D;5685;52.384;13.420;2022-11-03T02:41:51;20.30;98.90
11256;HTU21D;5685;52.384;13.420;2022-11-03T02:44:57;20.20;98.80
11256;HTU21D;5685;52.384;13.420;2022-11-03T02:48:02;20.20;98.80
11256;HTU21D;5685;52.384;13.420;2022-11-03T02:51:06;20.20;98.70
11256;HTU21D;5685;52.384;13.420;2022-11-03T02:54:13;20.20;98.80
11256;HTU21D;5685;52.384;13.420;2022-11-03T02:57:24;20.20;98.60
11256;HTU21D;5685;52.384;13.420;2022-11-03T03:00:33;20.20;98.70
11256;HTU21D;5685;52.384;13.420;2022-11-03T03:03:49;20.20;98.70
11256;HTU21D;5685;52.384;13.420;2022-11-03T03:06:56;20.20;98.40
11256;HTU21D;5685;52.384;13.420;2022-11-03T03:10:05;20.10;98.20
11256;HTU21D;5685;52.384;13.420;2022-11-03T03:13:15;20.10;98.40
11256;HTU21D;5685;52.384;13.420;2022-11-03T03:16:24;20.10;98.10
11256;HTU21D;5685;52.384;13.420;2022-11-03T03:19:44;20.10;98.20
11256;HTU21D;5685;52.384;13.420;2022-11-03T03:22:54;20.10;98.10
11256;HTU21D;5685;52.384;13.420;2022-11-03T03:26:02;20.10;98.00
11256;HTU21D;5685;52.384;13.420;2022-11-03T03:29:11;20.10;98.00
11256;HTU21D;5685;52.384;13.420;2022-11-03T03:32:19;20.00;98.00
11256;HTU21D;5685;52.384;13.420;2022-11-03T03:35:25;20.00;98.00
11256;HTU21D;5685;52.384;13.420;2022-11-03T03:38:34;20.00;98.00
11256;HTU21D;5685;52.384;13.420;2022-11-03T03:41:38;20.00;98.00
11256;HTU21D;5685;52.384;13.420;2022-11-03T03:44:44;20.00;98.00
11256;HTU21D;5685;52.384;13.420;2022-11-03T03:47:47;19.90;98.00
11256;HTU21D;5685;52.384;13.420;2022-11-03T03:50:50;19.90;97.90
11256;HTU21D;5685;52.384;13.420;2022-11-03T03:53:52;19.90;98.10
11256;HTU21D;5685;52.384;13.420;2022-11-03T03:56:59;19.90;97.90
11256;HTU21D;5685;52.384;13.420;2022-11-03T04:00:05;19.90;97.90
11256;HTU21D;5685;52.384;13.420;2022-11-03T04:03:13;19.90;97.90
11256;HTU21D;5685;52.384;13.420;2022-11-03T04:06:18;19.90;97.90
11256;HTU21D;5685;52.384;13.420;2022-11-03T04:09:20;19.90;97.90
11256;HTU21D;5685;52.384;13.420;2022-11-03T04:12:22;19.80;98.10
11256;HTU21D;5685;52.384;13.420;2022-11-03T04:15:43;19.80;98.20
11256;HTU21D;5685;52.384;13.420;2022-11-03T04:19:03;19.80;98.20
11256;HTU21D;5685;52.384;13.420;2022-11-03T04:22:24;19.80;97.90
11256;HTU21D;5685;52.384;13.420;2022-11-03T04:25:27;19.80;97.80
11256;HTU21D;5685;52.384;13.420;2022-11-03T04:28:29;19.70;97.50
11256;HTU21D;5685;52.384;13.420;2022-11-03T04:31:34;19.70;97.70
11256;HTU21D;5685;52.384;13.420;2022-11-03T04:34:37;19.70;97.70
11256;HTU21D;5685;52.384;13.420;2022-11-03T04:37:39;19.70;97.60
11256;HTU21D;5685;52.384;13.420;2022-11-03T04:40:43;19.70;97.50
11256;HTU21D;5685;52.384;13.420;2022-11-03T04:43:47;19.70;97.50
11256;HTU21D;5685;52.384;13.420;2022-11-03T04:46:53;19.70;97.30
11256;HTU21D;5685;52.384;13.420;2022-11-03T04:49:56;19.70;97.80
11256;HTU21D;5685;52.384;13.420;2022-11-03T04:52:59;19.70;97.40
11256;HTU21D;5685;52.384;13.420;2022-11-03T04:56:07;19.70;97.30
11256;HTU21D;5685;52.384;13.420;2022-11-03T04:59:15;19.70;97.30
11256;HTU21D;5685;52.384;13.420;2022-11-03T05:02:20;19.70;97.30
11256;HTU21D;5685;52.384;13.420;2022-11-03T05:05:24;19.70;97.30
11256;HTU21D;5685;52.384;13.420;2022-11-03T05:08:26;19.70;97.30
11256;HTU21D;5685;52.384;13.420;2022-11-03T05:11:31;19.70;97.20
11256;HTU21D;5685;52.384;13.420;2022-11-03T05:14:36;19.70;97.20
11256;HTU21D;5685;52.384;13.420;2022-11-03T05:17:39;19.70;97.20
11256;HTU21D;5685;52.384;13.420;2022-11-03T05:20:45;19.70;97.10
11256;HTU21D;5685;52.384;13.420;2022-11-03T05:23:53;19.70;97.00
11256;HTU21D;5685;52.384;13.420;2022-11-03T05:26:58;19.60;97.00
11256;HTU21D;5685;52.384;13.420;2022-11-03T05:30:01;19.60;96.90
11256;HTU21D;5685;52.384;13.420;2022-11-03T05:33:17;19.60;96.90
11256;HTU21D;5685;52.384;13.420;2022-11-03T05:36:23;19.60;96.90
11256;HTU21D;5685;52.384;13.420;2022-11-03T05:39:29;19.60;96.80
11256;HTU21D;5685;52.384;13.420;2022-11-03T05:42:34;19.60;96.90
11256;HTU21D;5685;52.384;13.420;2022-11-03T05:45:37;19.60;96.80
11256;HTU21D;5685;52.384;13.420;2022-11-03T05:48:41;19.60;96.70
11256;HTU21D;5685;52.384;13.420;2022-11-03T05:51:44;19.60;96.70
11256;HTU21D;5685;52.384;13.420;2022-11-03T05:54:47;19.60;96.70
11256;HTU21D;5685;52.384;13.420;2022-11-03T05:57:50;19.60;96.60
11256;HTU21D;5685;52.384;13.420;2022-11-03T06:00:53;19.60;96.60
11256;HTU21D;5685;52.384;13.420;2022-11-03T06:04:00;19.60;96.60
11256;HTU21D;5685;52.384;13.420;2022-11-03T06:07:19;19.60;96.60
11256;HTU21D;5685;52.384;13.420;2022-11-03T06:10:26;19.60;96.60
11256;HTU21D;5685;52.384;13.420;2022-11-03T06:13:31;19.60;96.50
11256;HTU21D;5685;52.384;13.420;2022-11-03T06:16:38;19.60;96.40
11256;HTU21D;5685;52.384;13.420;2022-11-03T06:19:45;19.60;96.40
11256;HTU21D;5685;52.384;13.420;2022-11-03T06:22:50;19.60;96.40
11256;HTU21D;5685;52.384;13.420;2022-11-03T06:25:55;19.60;96.40
11256;HTU21D;5685;52.384;13.420;2022-11-03T06:28:59;19.60;96.30
11256;HTU21D;5685;52.384;13.420;2022-11-03T06:32:01;19.60;96.30
11256;HTU21D;5685;52.384;13.420;2022-11-03T06:35:09;19.60;96.30
11256;HTU21D;5685;52.384;13.420;2022-11-03T06:38:16;19.60;96.30
11256;HTU21D;5685;52.384;13.420;2022-11-03T06:41:23;19.60;96.20
11256;HTU21D;5685;52.384;13.420;2022-11-03T06:44:27;19.60;96.20
11256;HTU21D;5685;52.384;13.420;2022-11-03T06:47:29;19.60;96.20
11256;HTU21D;5685;52.384;13.420;2022-11-03T06:50:34;19.50;96.10
11256;HTU21D;5685;52.384;13.420;2022-11-03T06:53:38;19.50;96.40
11256;HTU21D;5685;52.384;13.420;2022-11-03T06:56:40;19.50;96.10
11256;HTU21D;5685;52.384;13.420;2022-11-03T06:59:43;19.50;96.10
11256;HTU21D;5685;52.384;13.420;2022-11-03T07:02:58;19.50;96.00
11256;HTU21D;5685;52.384;13.420;2022-11-03T07:06:14;19.50;96.00
11256;HTU21D;5685;52.384;13.420;2022-11-03T07:09:23;19.50;96.00
11256;HTU21D;5685;52.384;13.420;2022-11-03T07:12:25;19.50;96.00
11256;HTU21D;5685;52.384;13.420;2022-11-03T07:15:31;19.50;96.00
11256;HTU21D;5685;52.384;13.420;2022-11-03T07:18:38;19.50;96.00
11256;HTU21D;5685;52.384;13.420;2022-11-03T07:21:45;19.50;95.90
11256;HTU21D;5685;52.384;13.420;2022-11-03T07:24:51;19.50;95.90
11256;HTU21D;5685;52.384;13.420;2022-11-03T07:27:54;19.50;95.90
11256;HTU21D;5685;52.384;13.420;2022-11-03T07:30:59;19.50;95.90
11256;HTU21D;5685;52.384;13.420;2022-11-03T07:34:08;19.50;95.90
11256;HTU21D;5685;52.384;13.420;2022-11-03T07:37:17;19.50;96.30
11256;HTU21D;5685;52.384;13.420;2022-11-03T07:40:22;19.50;96.10
11256;HTU21D;5685;52.384;13.420;2022-11-03T07:43:29;19.50;96.00
11256;HTU21D;5685;52.384;13.420;2022-11-03T07:46:32;19.50;95.90
11256;HTU21D;5685;52.384;13.420;2022-11-03T07:49:35;19.50;95.90
11256;HTU21D;5685;52.384;13.420;2022-11-03T07:52:39;19.50;95.90
11256;HTU21D;5685;52.384;13.420;2022-11-03T07:55:43;19.50;95.90
11256;HTU21D;5685;52.384;13.420;2022-11-03T07:58:48;19.50;95.90
11256;HTU21D;5685;52.384;13.420;2022-11-03T08:01:52;19.50;95.90
11256;HTU21D;5685;52.384;13.420;2022-11-03T08:04:56;19.50;95.90
11256;HTU21D;5685;52.384;13.420;2022-11-03T08:08:00;19.40;95.90
11256;HTU21D;5685;52.384;13.420;2022-11-03T08:11:02;19.50;96.00
11256;HTU21D;5685;52.384;13.420;2022-11-03T08:14:05;19.50;96.00
11256;HTU21D;5685;52.384;13.420;2022-11-03T08:17:07;19.50;96.00
11256;HTU21D;5685;52.384;13.420;2022-11-03T08:20:10;19.50;95.90
11256;HTU21D;5685;52.384;13.420;2022-11-03T08:23:14;19.50;96.00
11256;HTU21D;5685;52.384;13.420;2022-11-03T08:26:16;19.50;95.90
11256;HTU21D;5685;52.384;13.420;2022-11-03T08:29:18;19.50;95.90
11256;HTU21D;5685;52.384;13.420;2022-11-03T08:32:20;19.50;95.90
11256;HTU21D;5685;52.384;13.420;2022-11-03T08:35:23;19.50;96.00
11256;HTU21D;5685;52.384;13.420;2022-11-03T08:38:27;19.40;96.00
11256;HTU21D;5685;52.384;13.420;2022-11-03T08:41:29;19.50;96.00
11256;HTU21D;5685;52.384;13.420;2022-11-03T08:44:31;19.40;96.00
11256;HTU21D;5685;52.384;13.420;2022-11-03T08:47:33;19.50;96.00
11256;HTU21D;5685;52.384;13.420;2022-11-03T08:50:36;19.40;96.00
11256;HTU21D;5685;52.384;13.420;2022-11-03T08:53:40;19.50;96.00
11256;HTU21D;5685;52.384;13.420;2022-11-03T08:56:42;19.40;96.00
11256;HTU21D;5685;52.384;13.420;2022-11-03T08:59:46;19.40;96.00
11256;HTU21D;5685;52.384;13.420;2022-11-03T09:02:48;19.40;96.10
11256;HTU21D;5685;52.384;13.420;2022-11-03T09:05:50;19.40;96.10
11256;HTU21D;5685;52.384;13.420;2022-11-03T09:08:54;19.50;96.10
11256;HTU21D;5685;52.384;13.420;2022-11-03T09:11:56;19.50;96.10
11256;HTU21D;5685;52.384;13.420;2022-11-03T09:14:58;19.50;96.10
11256;HTU21D;5685;52.384;13.420;2022-11-03T09:18:01;19.50;96.20
11256;HTU21D;5685;52.384;13.420;2022-11-03T09:21:03;19.50;96.30
11256;HTU21D;5685;52.384;13.420;2022-11-03T09:24:07;19.50;96.30
11256;HTU21D;5685;52.384;13.420;2022-11-03T09:27:10;19.50;96.40
11256;HTU21D;5685;52.384;13.420;2022-11-03T09:30:12;19.50;96.40
11256;HTU21D;5685;52.384;13.420;2022-11-03T09:33:15;19.50;96.40
11256;HTU21D;5685;52.384;13.420;2022-11-03T09:36:17;19.50;96.40
11256;HTU21D;5685;52.384;13.420;2022-11-03T09:39:21;19.40;96.50
11256;HTU21D;5685;52.384;13.420;2022-11-03T09:42:24;19.50;96.50
11256;HTU21D;5685;52.384;13.420;2022-11-03T09:45:26;19.50;96.50
11256;HTU21D;5685;52.384;13.420;2022-11-03T09:48:28;19.50;96.60
11256;HTU21D;5685;52.384;13.420;2022-11-03T09:51:31;19.50;96.60
11256;HTU21D;5685;52.384;13.420;2022-11-03T09:54:37;19.50;96.60
11256;HTU21D;5685;52.384;13.420;2022-11-03T09:57:39;19.50;96.60
11256;HTU21D;5685;52.384;13.420;2022-11-03T10:00:42;19.50;96.70
11256;HTU21D;5685;52.384;13.420;2022-11-03T10:03:44;19.50;96.70
11256;HTU21D;5685;52.384;13.420;2022-11-03T10:06:46;19.50;96.80
11256;HTU21D;5685;52.384;13.420;2022-11-03T10:09:50;19.50;96.70
11256;HTU21D;5685;52.384;13.420;2022-11-03T10:12:53;19.50;96.80
11256;HTU21D;5685;52.384;13.420;2022-11-03T10:15:56;19.50;96.80
11256;HTU21D;5685;52.384;13.420;2022-11-03T10:18:58;19.50;96.90
11256;HTU21D;5685;52.384;13.420;2022-11-03T10:22:01;19.50;96.90
11256;HTU21D;5685;52.384;13.420;2022-11-03T10:25:32;19.50;96.90
11256;HTU21D;5685;52.384;13.420;2022-11-03T10:28:36;19.50;97.20
11256;HTU21D;5685;52.384;13.420;2022-11-03T10:31:40;19.50;97.00
11256;HTU21D;5685;52.384;13.420;2022-11-03T10:34:43;19.50;97.10
11256;HTU21D;5685;52.384;13.420;2022-11-03T10:37:45;19.50;97.10
11256;HTU21D;5685;52.384;13.420;2022-11-03T10:40:48;19.60;97.20
11256;HTU21D;5685;52.384;13.420;2022-11-03T10:44:02;19.60;97.40
11256;HTU21D;5685;52.384;13.420;2022-11-03T10:47:24;19.60;97.50
11256;HTU21D;5685;52.384;13.420;2022-11-03T10:50:27;19.60;97.50
11256;HTU21D;5685;52.384;13.420;2022-11-03T10:53:30;19.60;97.50
11256;HTU21D;5685;52.384;13.420;2022-11-03T10:56:34;19.60;97.40
11256;HTU21D;5685;52.384;13.420;2022-11-03T10:59:37;19.60;97.80
11256;HTU21D;5685;52.384;13.420;2022-11-03T11:02:41;19.60;97.50
11256;HTU21D;5685;52.384;13.420;2022-11-03T11:05:44;19.60;97.50
11256;HTU21D;5685;52.384;13.420;2022-11-03T11:08:48;19.60;97.60
11256;HTU21D;5685;52.384;13.420;2022-11-03T11:12:00;19.60;97.70
11256;HTU21D;5685;52.384;13.420;2022-11-03T11:19:08;19.60;97.80
11256;HTU21D;5685;52.384;13.420;2022-11-03T11:22:12;19.60;97.80
11256;HTU21D;5685;52.384;13.420;2022-11-03T11:25:17;19.60;97.80
11256;HTU21D;5685;52.384;13.420;2022-11-03T11:28:20;19.60;97.80
11256;HTU21D;5685;52.384;13.420;2022-11-03T11:39:10;19.70;98.40
11256;HTU21D;5685;52.384;13.420;2022-11-03T11:42:14;19.70;98.10
11256;HTU21D;5685;52.384;13.420;2022-11-03T11:49:19;19.70;98.20
11256;HTU21D;5685;52.384;13.420;2022-11-03T11:52:21;19.70;98.00
11256;HTU21D;5685;52.384;13.420;2022-11-03T11:55:45;19.70;98.10
11256;HTU21D;5685;52.384;13.420;2022-11-03T11:58:52;19.70;98.40
11256;HTU21D;5685;52.384;13.420;2022-11-03T12:01:56;19.70;98.40
11256;HTU21D;5685;52.384;13.420;2022-11-03T12:04:59;19.70;98.30
11256;HTU21D;5685;52.384;13.420;2022-11-03T12:08:16;19.70;98.20
11256;HTU21D;5685;52.384;13.420;2022-11-03T12:11:39;19.70;98.60
11256;HTU21D;5685;52.384;13.420;2022-11-03T12:14:42;19.70;98.30
11256;HTU21D;5685;52.384;13.420;2022-11-03T12:17:46;19.70;98.20
11256;HTU21D;5685;52.384;13.420;2022-11-03T12:20:48;19.70;98.30
11256;HTU21D;5685;52.384;13.420;2022-11-03T12:23:50;19.70;98.20
11256;HTU21D;5685;52.384;13.420;2022-11-03T12:26:53;19.70;98.20
11256;HTU21D;5685;52.384;13.420;2022-11-03T12:29:56;19.80;98.30
11256;HTU21D;5685;52.384;13.420;2022-11-03T12:33:01;19.80;98.40
11256;HTU21D;5685;52.384;13.420;2022-11-03T12:36:04;19.70;98.60
11256;HTU21D;5685;52.384;13.420;2022-11-03T12:39:07;19.80;98.70
11256;HTU21D;5685;52.384;13.420;2022-11-03T12:42:09;19.80;98.60
11256;HTU21D;5685;52.384;13.420;2022-11-03T12:45:11;19.80;98.60
11256;HTU21D;5685;52.384;13.420;2022-11-03T12:48:15;19.80;98.60
11256;HTU21D;5685;52.384;13.420;2022-11-03T12:51:20;19.80;98.70
11256;HTU21D;5685;52.384;13.420;2022-11-03T12:54:22;19.80;98.70
11256;HTU21D;5685;52.384;13.420;2022-11-03T12:57:25;19.80;98.80
11256;HTU21D;5685;52.384;13.420;2022-11-03T13:00:27;19.90;98.90
11256;HTU21D;5685;52.384;13.420;2022-11-03T13:03:31;19.80;98.90
11256;HTU21D;5685;52.384;13.420;2022-11-03T13:06:33;19.90;98.90
11256;HTU21D;5685;52.384;13.420;2022-11-03T13:09:36;19.90;98.80
11256;HTU21D;5685;52.384;13.420;2022-11-03T13:12:38;19.90;98.90
11256;HTU21D;5685;52.384;13.420;2022-11-03T13:15:41;19.90;98.80
11256;HTU21D;5685;52.384;13.420;2022-11-03T13:18:44;19.90;98.90
11256;HTU21D;5685;52.384;13.420;2022-11-03T13:21:47;19.90;99.00
11256;HTU21D;5685;52.384;13.420;2022-11-03T13:24:49;19.90;98.90
11256;HTU21D;5685;52.384;13.420;2022-11-03T13:27:51;19.90;99.00
11256;HTU21D;5685;52.384;13.420;2022-11-03T13:30:54;19.90;99.00
11256;HTU21D;5685;52.384;13.420;2022-11-03T13:33:58;19.90;99.00
11256;HTU21D;5685;52.384;13.420;2022-11-03T13:37:00;19.90;99.10
11256;HTU21D;5685;52.384;13.420;2022-11-03T13:40:02;19.90;99.80
11256;HTU21D;5685;52.384;13.420;2022-11-03T13:43:05;20.00;99.90
11256;HTU21D;5685;52.384;13.420;2022-11-03T13:46:07;20.00;99.90
11256;HTU21D;5685;52.384;13.420;2022-11-03T13:49:11;20.00;99.80
11256;HTU21D;5685;52.384;13.420;2022-11-03T13:52:13;20.00;99.40
11256;HTU21D;5685;52.384;13.420;2022-11-03T13:55:15;20.00;99.30
11256;HTU21D;5685;52.384;13.420;2022-11-03T13:58:17;20.00;99.50
11256;HTU21D;5685;52.384;13.420;2022-11-03T14:01:21;20.00;99.30
11256;HTU21D;5685;52.384;13.420;2022-11-03T14:04:25;20.00;99.30
11256;HTU21D;5685;52.384;13.420;2022-11-03T14:07:27;20.00;99.30
11256;HTU21D;5685;52.384;13.420;2022-11-03T14:10:29;20.00;99.30
11256;HTU21D;5685;52.384;13.420;2022-11-03T14:13:31;20.00;99.30
11256;HTU21D;5685;52.384;13.420;2022-11-03T14:16:33;20.00;99.20
11256;HTU21D;5685;52.384;13.420;2022-11-03T14:19:37;20.10;99.20
11256;HTU21D;5685;52.384;13.420;2022-11-03T14:22:39;20.10;99.20
11256;HTU21D;5685;52.384;13.420;2022-11-03T14:25:41;20.10;99.40
11256;HTU21D;5685;52.384;13.420;2022-11-03T14:28:43;20.10;99.60
11256;HTU21D;5685;52.384;13.420;2022-11-03T14:31:46;20.10;99.50
11256;HTU21D;5685;52.384;13.420;2022-11-03T14:34:50;20.10;99.60
11256;HTU21D;5685;52.384;13.420;2022-11-03T14:37:52;20.10;99.60
11256;HTU21D;5685;52.384;13.420;2022-11-03T14:40:54;20.10;99.60
11256;HTU21D;5685;52.384;13.420;2022-11-03T14:44:14;20.10;99.50
11256;HTU21D;5685;52.384;13.420;2022-11-03T14:47:17;20.10;99.50
11256;HTU21D;5685;52.384;13.420;2022-11-03T14:50:22;20.10;99.60
11256;HTU21D;5685;52.384;13.420;2022-11-03T14:53:24;20.20;99.60
11256;HTU21D;5685;52.384;13.420;2022-11-03T14:56:26;20.20;99.60
11256;HTU21D;5685;52.384;13.420;2022-11-03T14:59:29;20.20;99.50
11256;HTU21D;5685;52.384;13.420;2022-11-03T15:02:31;20.20;99.50
11256;HTU21D;5685;52.384;13.420;2022-11-03T15:05:34;20.20;99.60
11256;HTU21D;5685;52.384;13.420;2022-11-03T15:08:45;20.20;99.70
11256;HTU21D;5685;52.384;13.420;2022-11-03T15:11:48;20.20;99.70
11256;HTU21D;5685;52.384;13.420;2022-11-03T15:14:50;20.20;99.50
11256;HTU21D;5685;52.384;13.420;2022-11-03T15:17:52;20.20;99.50
11256;HTU21D;5685;52.384;13.420;2022-11-03T15:20:56;20.30;99.50
11256;HTU21D;5685;52.384;13.420;2022-11-03T15:23:58;20.20;99.50
11256;HTU21D;5685;52.384;13.420;2022-11-03T15:27:00;20.30;99.40
11256;HTU21D;5685;52.384;13.420;2022-11-03T15:30:03;20.30;99.90
11256;HTU21D;5685;52.384;13.420;2022-11-03T15:33:06;20.30;99.80
11256;HTU21D;5685;52.384;13.420;2022-11-03T15:36:10;20.30;99.60
11256;HTU21D;5685;52.384;13.420;2022-11-03T15:39:12;20.30;99.70
11256;HTU21D;5685;52.384;13.420;2022-11-03T15:42:15;20.30;99.50
11256;HTU21D;5685;52.384;13.420;2022-11-03T15:45:18;20.30;99.50
11256;HTU21D;5685;52.384;13.420;2022-11-03T15:48:20;20.20;99.90
11256;HTU21D;5685;52.384;13.420;2022-11-03T15:51:24;20.20;99.90
11256;HTU21D;5685;52.384;13.420;2022-11-03T15:54:26;20.30;99.90
11256;HTU21D;5685;52.384;13.420;2022-11-03T15:57:28;20.30;99.80
11256;HTU21D;5685;52.384;13.420;2022-11-03T16:00:31;20.30;99.70
11256;HTU21D;5685;52.384;13.420;2022-11-03T16:03:33;20.30;99.50
11256;HTU21D;5685;52.384;13.420;2022-11-03T16:06:36;20.30;99.40
11256;HTU21D;5685;52.384;13.420;2022-11-03T16:09:38;20.30;99.40
11256;HTU21D;5685;52.384;13.420;2022-11-03T16:12:41;20.30;99.30
11256;HTU21D;5685;52.384;13.420;2022-11-03T16:15:43;20.30;99.20
11256;HTU21D;5685;52.384;13.420;2022-11-03T16:18:45;20.30;99.20
11256;HTU21D;5685;52.384;13.420;2022-11-03T16:21:49;20.30;99.20
11256;HTU21D;5685;52.384;13.420;2022-11-03T16:24:52;20.30;99.20
11256;HTU21D;5685;52.384;13.420;2022-11-03T16:27:54;20.30;99.20
11256;HTU21D;5685;52.384;13.420;2022-11-03T16:30:56;20.30;99.20
11256;HTU21D;5685;52.384;13.420;2022-11-03T16:33:58;20.30;99.20
11256;HTU21D;5685;52.384;13.420;2022-11-03T16:37:02;20.30;99.20
11256;HTU21D;5685;52.384;13.420;2022-11-03T16:40:05;20.30;99.10
11256;HTU21D;5685;52.384;13.420;2022-11-03T16:43:10;20.30;99.10
11256;HTU21D;5685;52.384;13.420;2022-11-03T16:46:12;20.40;99.10
11256;HTU21D;5685;52.384;13.420;2022-11-03T16:49:14;20.30;99.10
11256;HTU21D;5685;52.384;13.420;2022-11-03T16:52:18;20.30;99.00
11256;HTU21D;5685;52.384;13.420;2022-11-03T16:55:20;20.40;99.10
11256;HTU21D;5685;52.384;13.420;2022-11-03T16:58:22;20.40;99.10
11256;HTU21D;5685;52.384;13.420;2022-11-03T17:01:24;20.40;99.00
11256;HTU21D;5685;52.384;13.420;2022-11-03T17:04:27;20.40;99.00
11256;HTU21D;5685;52.384;13.420;2022-11-03T17:07:31;20.40;98.90
11256;HTU21D;5685;52.384;13.420;2022-11-03T17:10:33;20.40;99.00
11256;HTU21D;5685;52.384;13.420;2022-11-03T17:13:35;20.40;99.00
11256;HTU21D;5685;52.384;13.420;2022-11-03T17:16:37;20.40;99.00
11256;HTU21D;5685;52.384;13.420;2022-11-03T17:19:41;20.40;98.90
11256;HTU21D;5685;52.384;13.420;2022-11-03T17:22:45;20.40;98.90
11256;HTU21D;5685;52.384;13.420;2022-11-03T17:25:48;20.40;98.90
11256;HTU21D;5685;52.384;13.420;2022-11-03T17:28:50;20.40;98.90
11256;HTU21D;5685;52.384;13.420;2022-11-03T17:31:54;20.40;98.90
11256;HTU21D;5685;52.384;13.420;2022-11-03T17:34:56;20.40;98.90
11256;HTU21D;5685;52.384;13.420;2022-11-03T17:38:02;20.40;98.90
11256;HTU21D;5685;52.384;13.420;2022-11-03T17:41:08;20.40;98.90
11256;HTU21D;5685;52.384;13.420;2022-11-03T17:44:12;20.40;98.90
11256;HTU21D;5685;52.384;13.420;2022-11-03T17:47:14;20.40;98.90
11256;HTU21D;5685;52.384;13.420;2022-11-03T17:50:18;20.40;98.80
11256;HTU21D;5685;52.384;13.420;2022-11-03T17:53:25;20.40;98.80
11256;HTU21D;5685;52.384;13.420;2022-11-03T17:56:29;20.40;99.10
11256;HTU21D;5685;52.384;13.420;2022-11-03T17:59:31;20.40;99.30
11256;HTU21D;5685;52.384;13.420;2022-11-03T18:02:35;20.50;99.70
11256;HTU21D;5685;52.384;13.420;2022-11-03T18:05:38;20.40;99.60
11256;HTU21D;5685;52.384;13.420;2022-11-03T18:08:42;20.50;99.20
11256;HTU21D;5685;52.384;13.420;2022-11-03T18:11:44;20.40;99.10
11256;HTU21D;5685;52.384;13.420;2022-11-03T18:15:08;20.50;99.10
11256;HTU21D;5685;52.384;13.420;2022-11-03T18:18:16;20.40;99.00
11256;HTU21D;5685;52.384;13.420;2022-11-03T18:21:21;20.50;99.00
11256;HTU21D;5685;52.384;13.420;2022-11-03T18:24:26;20.50;99.00
11256;HTU21D;5685;52.384;13.420;2022-11-03T18:27:28;20.50;99.10
11256;HTU21D;5685;52.384;13.420;2022-11-03T18:30:31;20.50;99.00
11256;HTU21D;5685;52.384;13.420;2022-11-03T18:33:34;20.50;99.10
11256;HTU21D;5685;52.384;13.420;2022-11-03T18:36:37;20.50;99.10
11256;HTU21D;5685;52.384;13.420;2022-11-03T18:39:41;20.50;99.00
11256;HTU21D;5685;52.384;13.420;2022-11-03T18:42:43;20.50;99.00
11256;HTU21D;5685;52.384;13.420;2022-11-03T18:45:45;20.50;99.00
11256;HTU21D;5685;52.384;13.420;2022-11-03T18:48:48;20.50;99.40
11256;HTU21D;5685;52.384;13.420;2022-11-03T18:51:53;20.50;99.30
11256;HTU21D;5685;52.384;13.420;2022-11-03T18:55:01;20.50;99.80
11256;HTU21D;5685;52.384;13.420;2022-11-03T18:58:03;20.60;99.40
11256;HTU21D;5685;52.384;13.420;2022-11-03T19:01:05;20.60;99.20
11256;HTU21D;5685;52.384;13.420;2022-11-03T19:04:10;20.50;99.10
11256;HTU21D;5685;52.384;13.420;2022-11-03T19:07:18;20.60;99.10
11256;HTU21D;5685;52.384;13.420;2022-11-03T19:10:25;20.60;99.10
11256;HTU21D;5685;52.384;13.420;2022-11-03T19:13:29;20.60;99.10
11256;HTU21D;5685;52.384;13.420;2022-11-03T19:16:34;20.60;99.10
11256;HTU21D;5685;52.384;13.420;2022-11-03T19:19:36;20.60;99.00
11256;HTU21D;5685;52.384;13.420;2022-11-03T19:22:38;20.60;99.00
11256;HTU21D;5685;52.384;13.420;2022-11-03T19:25:42;20.60;99.00